createdAt,value
2023-02-07T00:00:35.276Z,90.49
2023-02-07T00:01:35.286Z,90.38
2023-02-07T00:02:35.248Z,90.38
2023-02-07T00:03:35.225Z,90.38
2023-02-07T00:04:35.223Z,90.38
2023-02-07T00:05:35.636Z,90.38
2023-02-07T00:06:35.205Z,90.38
2023-02-07T00:07:35.241Z,90.38
2023-02-07T00:08:35.163Z,90.38
2023-02-07T00:09:35.163Z,90.28
2023-02-07T00:10:35.156Z,90.38
2023-02-07T00:11:35.159Z,90.38
2023-02-07T00:12:35.109Z,90.38
2023-02-07T00:13:35.108Z,90.38
2023-02-07T00:14:35.090Z,90.28
2023-02-07T00:15:35.336Z,90.28
2023-02-07T00:16:35.136Z,90.28
2023-02-07T00:17:35.069Z,90.28
2023-02-07T00:18:35.048Z,90.28
2023-02-07T00:19:35.046Z,90.31
2023-02-07T00:20:35.023Z,90.31
2023-02-07T00:21:35.018Z,90.31
2023-02-07T00:22:34.989Z,90.21
2023-02-07T00:23:35.003Z,90.21
2023-02-07T00:24:34.967Z,90.21
2023-02-07T00:25:35.178Z,90.21
2023-02-07T00:26:34.962Z,90.21
2023-02-07T00:27:34.967Z,90.21
2023-02-07T00:28:35.066Z,90.21
2023-02-07T00:29:34.918Z,90.21
2023-02-07T00:30:34.952Z,90.21
2023-02-07T00:31:35.053Z,90.31
2023-02-07T00:32:34.876Z,90.53
2023-02-07T00:33:34.886Z,90.59
2023-02-07T00:34:34.868Z,90.59
2023-02-07T00:35:34.844Z,90.70
2023-02-07T00:36:34.828Z,90.74
2023-02-07T00:37:34.821Z,90.74
2023-02-07T00:38:34.802Z,90.74
2023-02-07T00:39:34.797Z,90.64
2023-02-07T00:40:34.775Z,90.42
2023-02-07T00:41:34.781Z,90.21
2023-02-07T00:42:34.744Z,90.10
2023-02-07T00:43:34.752Z,90.04
2023-02-07T00:44:34.722Z,90.04
2023-02-07T00:45:34.805Z,89.93
2023-02-07T00:46:34.891Z,89.93
2023-02-07T00:47:34.692Z,89.93
2023-02-07T00:48:34.671Z,89.93
2023-02-07T00:49:34.674Z,89.83
2023-02-07T00:50:34.665Z,89.83
2023-02-07T00:51:34.650Z,89.72
2023-02-07T00:52:34.652Z,89.61
2023-02-07T00:53:34.628Z,89.65
2023-02-07T00:54:34.599Z,89.54
2023-02-07T00:55:34.600Z,89.54
2023-02-07T00:56:34.579Z,89.54
2023-02-07T00:57:34.578Z,89.54
2023-02-07T00:58:34.570Z,89.54
2023-02-07T00:59:34.549Z,89.54
2023-02-07T01:00:34.549Z,89.65
2023-02-07T01:01:34.539Z,89.76
2023-02-07T01:02:34.517Z,89.76
2023-02-07T01:03:34.504Z,89.76
2023-02-07T01:04:34.597Z,89.76
2023-02-07T01:05:34.628Z,89.65
2023-02-07T01:06:34.465Z,89.65
2023-02-07T01:07:34.475Z,89.65
2023-02-07T01:08:34.437Z,89.54
2023-02-07T01:09:34.431Z,89.54
2023-02-07T01:10:34.424Z,89.54
2023-02-07T01:11:34.412Z,89.54
2023-02-07T01:12:34.397Z,89.54
2023-02-07T01:13:34.379Z,89.54
2023-02-07T01:14:34.358Z,89.65
2023-02-07T01:15:34.446Z,89.76
2023-02-07T01:16:34.349Z,89.97
2023-02-07T01:17:34.343Z,90.08
2023-02-07T01:18:34.316Z,90.12
2023-02-07T01:19:34.311Z,90.12
2023-02-07T01:20:34.287Z,90.12
2023-02-07T01:21:34.284Z,90.12
2023-02-07T01:22:34.278Z,90.12
2023-02-07T01:23:34.265Z,90.12
2023-02-07T01:24:34.247Z,90.12
2023-02-07T01:25:34.232Z,90.12
2023-02-07T01:26:34.216Z,90.12
2023-02-07T01:27:34.227Z,90.12
2023-02-07T01:28:34.196Z,90.12
2023-02-07T01:29:34.192Z,90.12
2023-02-07T01:30:34.238Z,90.01
2023-02-07T01:31:34.233Z,90.01
2023-02-07T01:32:34.168Z,89.90
2023-02-07T01:33:34.137Z,89.79
2023-02-07T01:34:34.127Z,89.79
2023-02-07T01:35:34.112Z,89.79
2023-02-07T01:36:34.114Z,89.79
2023-02-07T01:37:34.101Z,89.79
2023-02-07T01:38:34.089Z,89.79
2023-02-07T01:39:34.061Z,89.79
2023-02-07T01:40:34.073Z,89.79
2023-02-07T01:41:34.027Z,89.79
2023-02-07T01:42:34.042Z,89.90
2023-02-07T01:43:34.019Z,89.90
2023-02-07T01:44:33.998Z,90.01
2023-02-07T01:45:33.995Z,90.12
2023-02-07T01:46:34.059Z,90.12
2023-02-07T01:47:33.990Z,90.12
2023-02-07T01:48:33.943Z,90.12
2023-02-07T01:49:33.934Z,90.16
2023-02-07T01:50:33.924Z,90.05
2023-02-07T01:51:33.905Z,90.05
2023-02-07T01:52:33.900Z,90.05
2023-02-07T01:53:33.903Z,90.05
2023-02-07T01:54:33.879Z,90.05
2023-02-07T01:55:33.871Z,90.05
2023-02-07T01:56:33.840Z,90.05
2023-02-07T01:57:33.849Z,90.16
2023-02-07T01:58:33.821Z,90.16
2023-02-07T01:59:33.810Z,90.26
2023-02-07T02:00:33.835Z,90.26
2023-02-07T02:01:33.851Z,90.26
2023-02-07T02:02:33.803Z,90.26
2023-02-07T02:03:33.763Z,90.26
2023-02-07T02:04:33.743Z,90.37
2023-02-07T02:05:33.748Z,90.37
2023-02-07T02:06:33.716Z,90.44
2023-02-07T02:07:33.726Z,90.55
2023-02-07T02:08:33.695Z,90.65
2023-02-07T02:09:33.685Z,90.76
2023-02-07T02:10:33.667Z,90.97
2023-02-07T02:11:33.662Z,91.29
2023-02-07T02:12:33.757Z,91.56
2023-02-07T02:13:33.634Z,91.78
2023-02-07T02:14:33.620Z,92.10
2023-02-07T02:15:33.620Z,92.42
2023-02-07T02:16:33.600Z,92.95
2023-02-07T02:17:33.608Z,93.44
2023-02-07T02:18:33.574Z,94.08
2023-02-07T02:19:33.601Z,94.51
2023-02-07T02:20:33.551Z,94.72
2023-02-07T02:21:33.540Z,95.00
2023-02-07T02:22:33.542Z,95.32
2023-02-07T02:23:33.521Z,95.42
2023-02-07T02:24:33.512Z,95.64
2023-02-07T02:25:33.490Z,95.85
2023-02-07T02:26:33.492Z,96.06
2023-02-07T02:27:33.480Z,96.23
2023-02-07T02:28:33.459Z,96.34
2023-02-07T02:29:33.450Z,96.55
2023-02-07T02:30:33.467Z,96.55
2023-02-07T02:31:33.426Z,96.66
2023-02-07T02:32:33.412Z,96.87
2023-02-07T02:33:33.398Z,96.83
2023-02-07T02:34:33.396Z,97.04
2023-02-07T02:35:33.372Z,97.14
2023-02-07T02:36:33.371Z,97.25
2023-02-07T02:37:33.340Z,97.36
2023-02-07T02:38:33.346Z,97.46
2023-02-07T02:39:33.315Z,97.46
2023-02-07T02:40:33.319Z,97.57
2023-02-07T02:41:33.295Z,97.57
2023-02-07T02:42:33.288Z,97.57
2023-02-07T02:43:33.286Z,97.67
2023-02-07T02:44:33.268Z,97.63
2023-02-07T02:45:33.250Z,97.74
2023-02-07T02:46:33.270Z,97.74
2023-02-07T02:47:33.239Z,97.85
2023-02-07T02:48:33.226Z,97.85
2023-02-07T02:49:33.216Z,97.85
2023-02-07T02:50:33.196Z,97.85
2023-02-07T02:51:33.244Z,97.95
2023-02-07T02:52:49.669Z,97.91
2023-02-07T02:53:34.177Z,98.01
2023-02-07T02:54:33.144Z,98.12
2023-02-07T02:55:33.124Z,98.12
2023-02-07T02:56:33.115Z,98.22
2023-02-07T02:57:33.177Z,98.22
2023-02-07T02:58:33.114Z,98.22
2023-02-07T02:59:33.074Z,98.33
2023-02-07T03:00:33.078Z,98.33
2023-02-07T03:01:33.068Z,98.33
2023-02-07T03:02:33.056Z,98.28
2023-02-07T03:03:33.044Z,98.28
2023-02-07T03:04:33.026Z,98.39
2023-02-07T03:05:33.091Z,98.39
2023-02-07T03:06:33.001Z,98.50
2023-02-07T03:07:32.986Z,98.60
2023-02-07T03:08:32.981Z,98.60
2023-02-07T03:09:32.951Z,98.71
2023-02-07T03:10:32.941Z,98.71
2023-02-07T03:11:32.944Z,98.71
2023-02-07T03:12:32.935Z,98.71
2023-02-07T03:13:32.932Z,98.82
2023-02-07T03:14:32.907Z,98.82
2023-02-07T03:15:32.880Z,98.82
2023-02-07T03:16:32.894Z,98.82
2023-02-07T03:17:32.861Z,98.77
2023-02-07T03:18:32.867Z,98.77
2023-02-07T03:19:32.836Z,98.88
2023-02-07T03:20:32.836Z,98.88
2023-02-07T03:21:32.817Z,98.88
2023-02-07T03:22:32.812Z,98.88
2023-02-07T03:23:33.072Z,98.88
2023-02-07T03:24:32.777Z,98.88
2023-02-07T03:25:32.766Z,98.88
2023-02-07T03:26:32.752Z,98.88
2023-02-07T03:27:32.732Z,98.88
2023-02-07T03:28:32.741Z,98.88
2023-02-07T03:29:32.714Z,98.88
2023-02-07T03:30:32.723Z,98.99
2023-02-07T03:31:32.703Z,98.99
2023-02-07T03:32:32.680Z,98.94
2023-02-07T03:33:32.671Z,98.99
2023-02-07T03:34:32.649Z,98.94
2023-02-07T03:35:32.639Z,98.94
2023-02-07T03:36:32.641Z,98.94
2023-02-07T03:37:32.618Z,98.94
2023-02-07T03:38:32.625Z,98.94
2023-02-07T03:39:32.588Z,98.94
2023-02-07T03:40:32.577Z,98.83
2023-02-07T03:41:32.559Z,98.94
2023-02-07T03:42:32.556Z,98.83
2023-02-07T03:43:32.557Z,98.83
2023-02-07T03:44:32.526Z,98.83
2023-02-07T03:45:32.514Z,98.83
2023-02-07T03:46:32.536Z,98.73
2023-02-07T03:47:32.487Z,98.73
2023-02-07T03:48:32.503Z,98.73
2023-02-07T03:49:32.463Z,98.62
2023-02-07T03:50:32.454Z,98.62
2023-02-07T03:51:32.441Z,98.62
2023-02-07T03:52:32.433Z,98.52
2023-02-07T03:53:32.432Z,98.52
2023-02-07T03:54:32.404Z,98.52
2023-02-07T03:55:32.383Z,98.52
2023-02-07T03:56:32.402Z,98.52
2023-02-07T03:57:32.368Z,98.52
2023-02-07T03:58:32.364Z,98.41
2023-02-07T03:59:32.354Z,98.47
2023-02-07T04:00:32.338Z,98.47
2023-02-07T04:01:32.313Z,98.36
2023-02-07T04:02:32.308Z,98.36
2023-02-07T04:03:32.303Z,98.36
2023-02-07T04:04:32.299Z,98.36
2023-02-07T04:05:32.271Z,98.36
2023-02-07T04:06:32.259Z,98.26
2023-02-07T04:07:32.240Z,98.26
2023-02-07T04:08:32.264Z,98.26
2023-02-07T04:09:32.228Z,98.26
2023-02-07T04:10:32.225Z,98.26
2023-02-07T04:11:32.203Z,98.16
2023-02-07T04:12:32.187Z,98.16
2023-02-07T04:13:32.181Z,98.16
2023-02-07T04:14:32.168Z,98.05
2023-02-07T04:15:32.140Z,98.05
2023-02-07T04:16:32.171Z,98.05
2023-02-07T04:17:32.121Z,97.94
2023-02-07T04:18:32.142Z,97.90
2023-02-07T04:19:32.096Z,97.79
2023-02-07T04:20:32.094Z,97.79
2023-02-07T04:21:32.075Z,97.79
2023-02-07T04:22:32.059Z,97.79
2023-02-07T04:23:32.071Z,97.69
2023-02-07T04:24:32.062Z,97.69
2023-02-07T04:25:32.030Z,97.69
2023-02-07T04:26:32.025Z,97.69
2023-02-07T04:27:32.036Z,97.69
2023-02-07T04:28:32.006Z,97.69
2023-02-07T04:29:31.987Z,97.69
2023-02-07T04:30:32.057Z,97.69
2023-02-07T04:31:31.996Z,97.69
2023-02-07T04:32:31.934Z,97.69
2023-02-07T04:33:31.942Z,97.69
2023-02-07T04:34:31.941Z,97.69
2023-02-07T04:35:31.902Z,97.69
2023-02-07T04:36:31.923Z,97.69
2023-02-07T04:37:31.880Z,97.69
2023-02-07T04:38:31.879Z,97.69
2023-02-07T04:39:31.852Z,97.64
2023-02-07T04:40:31.843Z,97.64
2023-02-07T04:41:31.821Z,97.64
2023-02-07T04:42:31.809Z,97.53
2023-02-07T04:43:31.826Z,97.53
2023-02-07T04:44:31.788Z,97.53
2023-02-07T04:45:31.801Z,97.53
2023-02-07T04:46:31.770Z,97.43
2023-02-07T04:47:31.748Z,97.43
2023-02-07T04:48:31.745Z,97.43
2023-02-07T04:49:34.185Z,97.43
2023-02-07T04:50:31.724Z,97.43
2023-02-07T04:51:31.695Z,97.43
2023-02-07T04:52:31.693Z,97.43
2023-02-07T04:53:31.684Z,97.33
2023-02-07T04:54:31.672Z,97.33
2023-02-07T04:55:31.660Z,97.33
2023-02-07T04:56:31.639Z,97.33
2023-02-07T04:57:31.623Z,97.22
2023-02-07T04:58:31.639Z,97.22
2023-02-07T04:59:31.600Z,97.22
2023-02-07T05:00:31.589Z,97.11
2023-02-07T05:01:31.581Z,97.11
2023-02-07T05:02:31.571Z,97.01
2023-02-07T05:03:31.569Z,97.01
2023-02-07T05:04:31.565Z,96.90
2023-02-07T05:05:31.529Z,96.90
2023-02-07T05:06:31.520Z,96.90
2023-02-07T05:07:31.511Z,96.90
2023-02-07T05:08:31.510Z,96.80
2023-02-07T05:09:31.471Z,96.80
2023-02-07T05:10:31.472Z,96.69
2023-02-07T05:11:31.450Z,96.69
2023-02-07T05:12:31.444Z,96.69
2023-02-07T05:13:31.430Z,96.69
2023-02-07T05:14:31.434Z,96.69
2023-02-07T05:15:31.410Z,96.69
2023-02-07T05:16:31.434Z,96.69
2023-02-07T05:17:31.391Z,96.69
2023-02-07T05:18:31.392Z,96.69
2023-02-07T05:19:31.359Z,96.69
2023-02-07T05:20:31.348Z,96.58
2023-02-07T05:21:31.330Z,96.58
2023-02-07T05:22:31.320Z,96.58
2023-02-07T05:23:31.323Z,96.48
2023-02-07T05:24:31.308Z,96.48
2023-02-07T05:25:31.284Z,96.44
2023-02-07T05:26:31.274Z,96.33
2023-02-07T05:27:31.259Z,96.22
2023-02-07T05:28:31.264Z,96.22
2023-02-07T05:29:31.226Z,96.22
2023-02-07T05:30:31.341Z,96.22
2023-02-07T05:31:31.266Z,96.22
2023-02-07T05:32:31.202Z,96.22
2023-02-07T05:33:31.196Z,96.22
2023-02-07T05:34:31.166Z,96.22
2023-02-07T05:35:31.161Z,96.33
2023-02-07T05:36:31.144Z,96.33
2023-02-07T05:37:31.170Z,96.33
2023-02-07T05:38:31.134Z,96.33
2023-02-07T05:39:31.101Z,96.33
2023-02-07T05:40:31.098Z,96.22
2023-02-07T05:41:31.072Z,96.22
2023-02-07T05:42:31.070Z,96.22
2023-02-07T05:43:31.066Z,96.22
2023-02-07T05:44:31.039Z,96.22
2023-02-07T05:45:31.031Z,96.22
2023-02-07T05:46:31.019Z,96.28
2023-02-07T05:47:31.013Z,96.28
2023-02-07T05:48:31.008Z,96.44
2023-02-07T05:49:30.978Z,96.39
2023-02-07T05:50:30.966Z,96.50
2023-02-07T05:51:30.957Z,96.50
2023-02-07T05:52:30.944Z,96.50
2023-02-07T05:53:30.934Z,96.50
2023-02-07T05:54:30.925Z,96.50
2023-02-07T05:55:30.906Z,96.50
2023-02-07T05:56:30.894Z,96.50
2023-02-07T05:57:30.875Z,96.39
2023-02-07T05:58:30.872Z,96.39
2023-02-07T05:59:30.850Z,96.39
2023-02-07T06:00:30.841Z,96.28
2023-02-07T06:01:30.830Z,96.28
2023-02-07T06:02:30.966Z,96.28
2023-02-07T06:03:30.866Z,96.18
2023-02-07T06:04:30.790Z,96.18
2023-02-07T06:05:30.782Z,96.18
2023-02-07T06:06:30.773Z,96.18
2023-02-07T06:07:30.749Z,96.08
2023-02-07T06:08:30.756Z,96.08
2023-02-07T06:09:30.728Z,96.08
2023-02-07T06:10:30.723Z,96.08
2023-02-07T06:11:30.705Z,96.08
2023-02-07T06:12:30.697Z,96.08
2023-02-07T06:13:30.692Z,96.08
2023-02-07T06:14:30.678Z,96.08
2023-02-07T06:15:30.734Z,96.08
2023-02-07T06:16:30.657Z,96.08
2023-02-07T06:17:30.624Z,96.08
2023-02-07T06:18:30.636Z,96.08
2023-02-07T06:19:30.604Z,96.08
2023-02-07T06:20:30.592Z,96.08
2023-02-07T06:21:45.309Z,96.08
2023-02-07T06:22:31.595Z,96.08
2023-02-07T06:23:30.571Z,96.08
2023-02-07T06:24:30.544Z,96.08
2023-02-07T06:25:30.518Z,96.08
2023-02-07T06:26:30.532Z,96.08
2023-02-07T06:27:30.503Z,96.08
2023-02-07T06:28:30.507Z,96.08
2023-02-07T06:29:30.480Z,95.97
2023-02-07T06:30:30.475Z,95.86
2023-02-07T06:31:30.520Z,95.86
2023-02-07T06:32:32.662Z,95.76
2023-02-07T06:33:30.432Z,95.65
2023-02-07T06:34:30.420Z,95.65
2023-02-07T06:35:30.406Z,95.65
2023-02-07T06:36:30.411Z,95.65
2023-02-07T06:37:30.393Z,95.65
2023-02-07T06:38:30.382Z,95.65
2023-02-07T06:39:30.359Z,95.54
2023-02-07T06:40:30.342Z,95.54
2023-02-07T06:41:30.345Z,95.44
2023-02-07T06:42:30.318Z,95.44
2023-02-07T06:43:30.319Z,95.33
2023-02-07T06:44:30.294Z,95.33
2023-02-07T06:45:30.286Z,95.23
2023-02-07T06:46:30.297Z,95.23
2023-02-07T06:47:30.267Z,95.23
2023-02-07T06:48:30.259Z,95.23
2023-02-07T06:49:30.252Z,95.12
2023-02-07T06:50:30.234Z,95.01
2023-02-07T06:51:30.244Z,94.91
2023-02-07T06:52:30.214Z,94.81
2023-02-07T06:53:30.204Z,94.81
2023-02-07T06:54:30.166Z,94.70
2023-02-07T06:55:30.166Z,94.70
2023-02-07T06:56:30.145Z,94.59
2023-02-07T06:57:30.135Z,94.48
2023-02-07T06:58:30.168Z,94.48
2023-02-07T06:59:30.103Z,94.38
2023-02-07T07:00:30.193Z,94.38
2023-02-07T07:01:30.133Z,94.27
2023-02-07T07:02:30.111Z,94.27
2023-02-07T07:03:30.075Z,94.27
2023-02-07T07:04:30.055Z,94.27
2023-02-07T07:05:30.047Z,94.27
2023-02-07T07:06:30.016Z,94.17
2023-02-07T07:07:30.032Z,94.06
2023-02-07T07:08:30.014Z,93.96
2023-02-07T07:09:29.994Z,93.96
2023-02-07T07:10:30.041Z,94.06
2023-02-07T07:11:29.977Z,94.06
2023-02-07T07:12:29.962Z,93.96
2023-02-07T07:13:29.968Z,93.96
2023-02-07T07:14:29.923Z,93.96
2023-02-07T07:15:29.912Z,93.96
2023-02-07T07:16:29.909Z,93.85
2023-02-07T07:17:29.890Z,93.85
2023-02-07T07:18:29.894Z,93.74
2023-02-07T07:19:29.862Z,93.74
2023-02-07T07:20:29.845Z,93.74
2023-02-07T07:21:29.851Z,93.74
2023-02-07T07:22:29.821Z,93.74
2023-02-07T07:23:29.817Z,93.74
2023-02-07T07:24:29.816Z,93.74
2023-02-07T07:25:29.791Z,93.74
2023-02-07T07:26:39.688Z,93.74
2023-02-07T07:27:30.769Z,93.74
2023-02-07T07:28:29.754Z,93.74
2023-02-07T07:29:29.760Z,93.64
2023-02-07T07:30:29.829Z,93.74
2023-02-07T07:31:29.723Z,93.74
2023-02-07T07:32:34.254Z,93.74
2023-02-07T07:33:29.689Z,93.60
2023-02-07T07:34:29.692Z,93.60
2023-02-07T07:35:29.671Z,93.60
2023-02-07T07:36:29.666Z,93.60
2023-02-07T07:37:29.635Z,93.49
2023-02-07T07:38:29.625Z,93.49
2023-02-07T07:39:29.634Z,93.49
2023-02-07T07:40:29.637Z,93.49
2023-02-07T07:41:29.603Z,93.49
2023-02-07T07:42:29.625Z,93.49
2023-02-07T07:43:29.560Z,93.60
2023-02-07T07:44:29.560Z,93.60
2023-02-07T07:45:29.539Z,93.70
2023-02-07T07:46:29.575Z,93.81
2023-02-07T07:47:29.513Z,93.81
2023-02-07T07:48:29.582Z,93.81
2023-02-07T07:49:29.504Z,93.81
2023-02-07T07:50:29.503Z,93.91
2023-02-07T07:51:29.469Z,93.91
2023-02-07T07:52:29.450Z,94.02
2023-02-07T07:53:29.438Z,94.02
2023-02-07T07:54:29.436Z,94.02
2023-02-07T07:55:29.407Z,94.02
2023-02-07T07:56:29.397Z,94.02
2023-02-07T07:57:29.391Z,94.02
2023-02-07T07:58:29.372Z,93.98
2023-02-07T07:59:29.372Z,93.87
2023-02-07T08:00:29.447Z,93.87
2023-02-07T08:01:29.341Z,93.87
2023-02-07T08:02:29.312Z,93.77
2023-02-07T08:03:29.329Z,93.66
2023-02-07T08:04:29.309Z,93.66
2023-02-07T08:05:29.282Z,93.55
2023-02-07T08:06:29.278Z,93.45
2023-02-07T08:07:29.277Z,93.45
2023-02-07T08:08:29.242Z,93.34
2023-02-07T08:09:29.251Z,93.34
2023-02-07T08:10:29.228Z,93.24
2023-02-07T08:11:29.206Z,93.24
2023-02-07T08:12:29.188Z,93.24
2023-02-07T08:13:32.312Z,93.24
2023-02-07T08:14:29.196Z,93.24
2023-02-07T08:15:29.183Z,93.34
2023-02-07T08:16:29.232Z,93.34
2023-02-07T08:17:29.158Z,93.30
2023-02-07T08:18:29.126Z,93.30
2023-02-07T08:19:29.135Z,93.30
2023-02-07T08:20:29.140Z,93.30
2023-02-07T08:21:29.086Z,93.30
2023-02-07T08:22:29.068Z,93.30
2023-02-07T08:23:29.070Z,93.30
2023-02-07T08:24:29.059Z,93.30
2023-02-07T08:25:29.038Z,93.09
2023-02-07T08:26:29.028Z,92.99
2023-02-07T08:27:29.018Z,92.88
2023-02-07T08:28:29.099Z,92.88
2023-02-07T08:29:29.002Z,92.88
2023-02-07T08:30:28.966Z,92.88
2023-02-07T08:31:29.043Z,92.88
2023-02-07T08:32:28.949Z,92.77
2023-02-07T08:33:30.330Z,92.67
2023-02-07T08:34:29.031Z,92.77
2023-02-07T08:35:28.922Z,92.94
2023-02-07T08:36:28.913Z,93.05
2023-02-07T08:37:28.894Z,93.05
2023-02-07T08:38:28.872Z,93.15
2023-02-07T08:39:28.936Z,93.15
2023-02-07T08:40:28.877Z,93.05
2023-02-07T08:41:28.835Z,92.94
2023-02-07T08:42:28.821Z,92.94
2023-02-07T08:43:28.820Z,92.83
2023-02-07T08:44:28.802Z,92.83
2023-02-07T08:45:28.913Z,92.83
2023-02-07T08:46:28.896Z,92.73
2023-02-07T08:47:28.776Z,92.52
2023-02-07T08:48:28.740Z,92.52
2023-02-07T08:49:28.757Z,92.52
2023-02-07T08:50:28.738Z,92.52
2023-02-07T08:51:28.718Z,92.52
2023-02-07T08:52:29.786Z,92.52
2023-02-07T08:53:28.709Z,92.41
2023-02-07T08:54:28.677Z,92.41
2023-02-07T08:55:28.675Z,92.41
2023-02-07T08:56:28.661Z,92.41
2023-02-07T08:57:28.653Z,92.41
2023-02-07T08:58:28.670Z,92.52
2023-02-07T08:59:28.623Z,92.63
2023-02-07T09:00:28.629Z,92.63
2023-02-07T09:01:28.631Z,92.79
2023-02-07T09:02:28.625Z,92.90
2023-02-07T09:03:28.582Z,93.11
2023-02-07T09:04:28.558Z,93.22
2023-02-07T09:05:28.547Z,93.32
2023-02-07T09:06:28.528Z,93.43
2023-02-07T09:07:28.517Z,93.49
2023-02-07T09:08:28.495Z,93.49
2023-02-07T09:09:28.494Z,93.49
2023-02-07T09:10:28.482Z,93.49
2023-02-07T09:11:28.523Z,93.38
2023-02-07T09:12:28.455Z,93.28
2023-02-07T09:13:28.452Z,93.18
2023-02-07T09:14:28.421Z,93.13
2023-02-07T09:15:28.438Z,93.03
2023-02-07T09:16:28.444Z,92.82
2023-02-07T09:17:28.397Z,92.44
2023-02-07T09:18:28.554Z,92.22
2023-02-07T09:19:28.374Z,92.22
2023-02-07T09:20:28.361Z,92.02
2023-02-07T09:21:28.349Z,91.80
2023-02-07T09:22:28.330Z,91.80
2023-02-07T09:23:28.318Z,91.80
2023-02-07T09:24:28.300Z,91.86
2023-02-07T09:25:28.400Z,91.86
2023-02-07T09:26:28.280Z,91.97
2023-02-07T09:27:28.277Z,91.97
2023-02-07T09:28:28.292Z,92.08
2023-02-07T09:29:28.247Z,92.25
2023-02-07T09:30:28.293Z,92.35
2023-02-07T09:31:28.341Z,92.25
2023-02-07T09:32:28.199Z,92.14
2023-02-07T09:33:28.208Z,92.03
2023-02-07T09:34:29.034Z,91.51
2023-02-07T09:35:28.199Z,91.30
2023-02-07T09:36:28.150Z,91.19
2023-02-07T09:37:28.779Z,91.09
2023-02-07T09:38:28.149Z,91.19
2023-02-07T09:39:28.126Z,91.41
2023-02-07T09:40:28.108Z,91.41
2023-02-07T09:41:28.103Z,90.98
2023-02-07T09:42:28.078Z,90.67
2023-02-07T09:43:29.396Z,90.35
2023-02-07T09:44:28.183Z,90.35
2023-02-07T09:45:28.198Z,90.45
2023-02-07T09:46:28.082Z,90.14
2023-02-07T09:47:28.029Z,89.93
2023-02-07T09:48:28.017Z,90.14
2023-02-07T09:49:28.007Z,90.35
2023-02-07T09:50:28.038Z,90.45
2023-02-07T09:51:27.980Z,90.56
2023-02-07T09:52:27.956Z,90.77
2023-02-07T09:53:27.944Z,90.88
2023-02-07T09:54:27.936Z,90.98
2023-02-07T09:55:27.942Z,91.09
2023-02-07T09:56:27.914Z,91.09
2023-02-07T09:57:27.902Z,91.19
2023-02-07T09:58:27.892Z,91.36
2023-02-07T09:59:27.890Z,91.26
2023-02-07T10:00:27.852Z,91.36
2023-02-07T10:01:27.890Z,91.47
2023-02-07T10:02:27.905Z,91.05
2023-02-07T10:03:27.823Z,90.83
2023-02-07T10:04:27.810Z,90.94
2023-02-07T10:05:27.795Z,90.73
2023-02-07T10:06:27.793Z,90.52
2023-02-07T10:07:27.769Z,90.41
2023-02-07T10:08:33.419Z,90.20
2023-02-07T10:09:28.746Z,90.31
2023-02-07T10:10:27.751Z,90.20
2023-02-07T10:11:27.775Z,89.99
2023-02-07T10:12:27.711Z,89.99
2023-02-07T10:13:27.696Z,90.41
2023-02-07T10:14:27.732Z,90.69
2023-02-07T10:15:27.703Z,90.90
2023-02-07T10:16:27.666Z,90.69
2023-02-07T10:17:31.988Z,90.69
2023-02-07T10:18:27.621Z,90.80
2023-02-07T10:19:27.623Z,91.00
2023-02-07T10:20:27.598Z,91.17
2023-02-07T10:21:27.604Z,91.17
2023-02-07T10:22:27.589Z,91.28
2023-02-07T10:23:27.591Z,90.97
2023-02-07T10:24:27.553Z,90.75
2023-02-07T10:25:28.367Z,90.75
2023-02-07T10:26:27.542Z,90.82
2023-02-07T10:27:27.516Z,90.92
2023-02-07T10:28:27.497Z,91.03
2023-02-07T10:29:27.490Z,91.03
2023-02-07T10:30:27.508Z,90.92
2023-02-07T10:31:27.568Z,90.82
2023-02-07T10:32:27.465Z,90.78
2023-02-07T10:33:27.447Z,90.67
2023-02-07T10:34:27.438Z,90.67
2023-02-07T10:35:27.427Z,90.14
2023-02-07T10:36:27.407Z,89.30
2023-02-07T10:37:27.393Z,88.46
2023-02-07T10:38:27.388Z,87.83
2023-02-07T10:39:27.365Z,87.73
2023-02-07T10:40:27.371Z,88.15
2023-02-07T10:41:27.356Z,88.35
2023-02-07T10:42:27.325Z,88.35
2023-02-07T10:43:27.313Z,88.35
2023-02-07T10:44:27.294Z,88.15
2023-02-07T10:45:27.308Z,88.35
2023-02-07T10:46:27.338Z,88.25
2023-02-07T10:47:27.263Z,88.00
2023-02-07T10:48:27.256Z,87.05
2023-02-07T10:49:27.244Z,87.05
2023-02-07T10:50:30.150Z,86.36
2023-02-07T10:51:27.231Z,86.46
2023-02-07T10:52:27.207Z,86.53
2023-02-07T10:53:27.182Z,86.63
2023-02-07T10:54:27.188Z,87.05
2023-02-07T10:55:27.204Z,87.05
2023-02-07T10:56:27.183Z,87.27
2023-02-07T10:57:27.138Z,87.27
2023-02-07T10:58:27.131Z,86.53
2023-02-07T10:59:27.110Z,86.11
2023-02-07T11:00:27.126Z,85.79
2023-02-07T11:01:27.106Z,85.90
2023-02-07T11:02:27.107Z,86.11
2023-02-07T11:03:27.063Z,86.21
2023-02-07T11:04:27.048Z,86.53
2023-02-07T11:05:27.044Z,86.63
2023-02-07T11:06:27.046Z,86.32
2023-02-07T11:07:28.209Z,86.18
2023-02-07T11:08:27.006Z,86.60
2023-02-07T11:09:26.988Z,87.23
2023-02-07T11:10:26.969Z,87.65
2023-02-07T11:11:26.983Z,87.71
2023-02-07T11:12:26.948Z,87.60
2023-02-07T11:13:28.083Z,87.40
2023-02-07T11:14:26.916Z,87.29
2023-02-07T11:15:26.910Z,87.08
2023-02-07T11:16:26.961Z,86.72
2023-02-07T11:17:26.899Z,86.72
2023-02-07T11:18:26.873Z,86.62
2023-02-07T11:19:26.859Z,86.62
2023-02-07T11:20:26.850Z,86.83
2023-02-07T11:21:26.861Z,87.15
2023-02-07T11:22:26.816Z,87.32
2023-02-07T11:23:26.804Z,87.32
2023-02-07T11:24:26.797Z,87.32
2023-02-07T11:25:26.775Z,87.00
2023-02-07T11:26:26.790Z,86.58
2023-02-07T11:27:26.760Z,86.16
2023-02-07T11:28:26.751Z,85.95
2023-02-07T11:29:26.748Z,85.95
2023-02-07T11:30:26.717Z,86.06
2023-02-07T11:31:26.765Z,86.12
2023-02-07T11:32:26.704Z,85.91
2023-02-07T11:33:26.672Z,85.28
2023-02-07T11:34:26.673Z,84.38
2023-02-07T11:35:26.683Z,83.54
2023-02-07T11:36:26.641Z,83.33
2023-02-07T11:37:26.646Z,83.75
2023-02-07T11:38:26.621Z,83.96
2023-02-07T11:39:26.602Z,84.17
2023-02-07T11:40:26.612Z,84.27
2023-02-07T11:41:26.582Z,83.86
2023-02-07T11:42:26.573Z,83.54
2023-02-07T11:43:26.562Z,83.22
2023-02-07T11:44:27.340Z,83.54
2023-02-07T11:45:26.532Z,83.75
2023-02-07T11:46:26.548Z,83.61
2023-02-07T11:47:26.507Z,83.22
2023-02-07T11:48:26.488Z,83.22
2023-02-07T11:49:26.490Z,83.12
2023-02-07T11:50:26.833Z,83.12
2023-02-07T11:51:26.457Z,83.22
2023-02-07T11:52:26.479Z,83.54
2023-02-07T11:53:26.434Z,83.64
2023-02-07T11:54:26.431Z,83.54
2023-02-07T11:55:26.397Z,83.37
2023-02-07T11:56:26.407Z,83.26
2023-02-07T11:57:26.416Z,83.37
2023-02-07T11:58:26.366Z,83.47
2023-02-07T11:59:26.358Z,83.75
2023-02-07T12:00:26.340Z,83.75
2023-02-07T12:01:26.337Z,83.75
2023-02-07T12:02:26.330Z,83.86
2023-02-07T12:03:26.297Z,84.27
2023-02-07T12:04:26.288Z,84.06
2023-02-07T12:05:26.276Z,83.68
2023-02-07T12:06:26.278Z,83.47
2023-02-07T12:07:26.270Z,83.26
2023-02-07T12:08:26.244Z,83.37
2023-02-07T12:09:26.228Z,83.26
2023-02-07T12:10:26.221Z,83.26
2023-02-07T12:11:26.200Z,83.79
2023-02-07T12:12:26.206Z,84.20
2023-02-07T12:13:26.180Z,84.63
2023-02-07T12:14:26.166Z,84.84
2023-02-07T12:15:26.154Z,85.11
2023-02-07T12:16:26.182Z,85.32
2023-02-07T12:17:26.144Z,85.11
2023-02-07T12:18:26.115Z,84.91
2023-02-07T12:19:26.095Z,85.01
2023-02-07T12:20:26.112Z,85.11
2023-02-07T12:21:26.078Z,85.18
2023-02-07T12:22:26.076Z,84.97
2023-02-07T12:23:41.688Z,84.34
2023-02-07T12:24:27.242Z,83.61
2023-02-07T12:25:26.045Z,83.61
2023-02-07T12:26:26.025Z,83.92
2023-02-07T12:27:26.015Z,84.34
2023-02-07T12:28:25.994Z,84.34
2023-02-07T12:29:25.992Z,84.23
2023-02-07T12:30:26.006Z,84.03
2023-02-07T12:31:26.142Z,83.29
2023-02-07T12:32:26.011Z,82.76
2023-02-07T12:33:25.936Z,82.24
2023-02-07T12:34:25.929Z,82.35
2023-02-07T12:35:25.918Z,82.87
2023-02-07T12:36:25.891Z,83.18
2023-02-07T12:37:25.896Z,83.29
2023-02-07T12:38:25.873Z,83.08
2023-02-07T12:39:25.850Z,82.87
2023-02-07T12:40:25.853Z,82.76
2023-02-07T12:41:25.829Z,82.56
2023-02-07T12:42:25.817Z,82.17
2023-02-07T12:43:25.809Z,82.39
2023-02-07T12:44:25.789Z,82.59
2023-02-07T12:45:25.812Z,82.91
2023-02-07T12:46:25.766Z,82.87
2023-02-07T12:47:25.750Z,82.98
2023-02-07T12:48:25.748Z,82.87
2023-02-07T12:49:25.718Z,82.66
2023-02-07T12:50:25.718Z,82.66
2023-02-07T12:51:25.711Z,82.66
2023-02-07T12:52:25.688Z,82.66